sensor_id;sensor_type;location;lat;lon;timestamp;temperature;humidity
7427;DHT22;3755;59.316;18.092;2024-03-29T00:01:49;6.50;99.90
7427;DHT22;3755;59.316;18.092;2024-03-29T00:04:17;6.50;99.90
7427;DHT22;3755;59.316;18.092;2024-03-29T00:06:43;6.50;99.90
7427;DHT22;3755;59.316;18.092;2024-03-29T00:09:09;6.50;99.90
7427;DHT22;3755;59.316;18.092;2024-03-29T00:11:35;6.50;99.90
7427;DHT22;3755;59.316;18.092;2024-03-29T00:14:01;6.40;99.90
7427;DHT22;3755;59.316;18.092;2024-03-29T00:16:27;6.50;99.90
7427;DHT22;3755;59.316;18.092;2024-03-29T00:18:53;6.50;99.90
7427;DHT22;3755;59.316;18.092;2024-03-29T00:21:20;6.40;99.90
7427;DHT22;3755;59.316;18.092;2024-03-29T00:23:46;6.50;99.90
7427;DHT22;3755;59.316;18.092;2024-03-29T00:26:12;6.40;99.90
7427;DHT22;3755;59.316;18.092;2024-03-29T00:28:39;6.40;99.90
7427;DHT22;3755;59.316;18.092;2024-03-29T00:31:05;6.30;99.90
7427;DHT22;3755;59.316;18.092;2024-03-29T00:33:31;6.30;99.90
7427;DHT22;3755;59.316;18.092;2024-03-29T00:35:57;6.40;99.90
7427;DHT22;3755;59.316;18.092;2024-03-29T00:38:24;6.40;99.90
7427;DHT22;3755;59.316;18.092;2024-03-29T00:40:50;6.40;99.90
7427;DHT22;3755;59.316;18.092;2024-03-29T00:43:16;6.40;99.90
7427;DHT22;3755;59.316;18.092;2024-03-29T00:45:42;6.40;99.90
7427;DHT22;3755;59.316;18.092;2024-03-29T00:48:09;6.30;99.90
7427;DHT22;3755;59.316;18.092;2024-03-29T00:50:35;6.40;99.90
7427;DHT22;3755;59.316;18.092;2024-03-29T00:53:01;6.40;99.90
7427;DHT22;3755;59.316;18.092;2024-03-29T00:55:29;6.40;99.90
7427;DHT22;3755;59.316;18.092;2024-03-29T00:57:55;6.30;99.90
7427;DHT22;3755;59.316;18.092;2024-03-29T01:00:21;6.30;99.90
7427;DHT22;3755;59.316;18.092;2024-03-29T01:02:47;6.30;99.90
7427;DHT22;3755;59.316;18.092;2024-03-29T01:05:13;6.30;99.90
7427;DHT22;3755;59.316;18.092;2024-03-29T01:07:40;6.30;99.90
7427;DHT22;3755;59.316;18.092;2024-03-29T01:10:07;6.30;99.90
7427;DHT22;3755;59.316;18.092;2024-03-29T01:12:35;6.30;99.90
7427;DHT22;3755;59.316;18.092;2024-03-29T01:15:01;6.30;99.90
7427;DHT22;3755;59.316;18.092;2024-03-29T01:17:28;6.30;99.90
7427;DHT22;3755;59.316;18.092;2024-03-29T01:19:54;6.30;99.90
7427;DHT22;3755;59.316;18.092;2024-03-29T01:22:20;6.30;99.90
7427;DHT22;3755;59.316;18.092;2024-03-29T01:24:47;6.30;99.90
7427;DHT22;3755;59.316;18.092;2024-03-29T01:27:13;6.30;99.90
7427;DHT22;3755;59.316;18.092;2024-03-29T01:29:40;6.30;99.90
7427;DHT22;3755;59.316;18.092;2024-03-29T01:32:07;6.30;99.90
7427;DHT22;3755;59.316;18.092;2024-03-29T01:34:33;6.30;99.90
7427;DHT22;3755;59.316;18.092;2024-03-29T01:36:59;6.30;99.90
7427;DHT22;3755;59.316;18.092;2024-03-29T01:39:25;6.30;99.90
7427;DHT22;3755;59.316;18.092;2024-03-29T01:41:51;6.30;99.90
7427;DHT22;3755;59.316;18.092;2024-03-29T01:44:17;6.30;99.90
7427;DHT22;3755;59.316;18.092;2024-03-29T01:46:45;6.20;99.90
7427;DHT22;3755;59.316;18.092;2024-03-29T01:49:13;6.20;99.90
7427;DHT22;3755;59.316;18.092;2024-03-29T01:51:40;6.20;99.90
7427;DHT22;3755;59.316;18.092;2024-03-29T01:54:09;6.20;99.90
7427;DHT22;3755;59.316;18.092;2024-03-29T01:56:38;6.20;99.90
7427;DHT22;3755;59.316;18.092;2024-03-29T01:59:09;6.10;99.90
7427;DHT22;3755;59.316;18.092;2024-03-29T02:01:40;6.20;99.90
7427;DHT22;3755;59.316;18.092;2024-03-29T02:04:09;6.10;99.90
7427;DHT22;3755;59.316;18.092;2024-03-29T02:06:38;6.10;99.90
7427;DHT22;3755;59.316;18.092;2024-03-29T02:09:05;6.10;99.90
7427;DHT22;3755;59.316;18.092;2024-03-29T02:11:33;6.10;99.90
7427;DHT22;3755;59.316;18.092;2024-03-29T02:14:00;6.00;99.90
7427;DHT22;3755;59.316;18.092;2024-03-29T02:16:27;6.10;99.90
7427;DHT22;3755;59.316;18.092;2024-03-29T02:18:54;6.10;99.90
7427;DHT22;3755;59.316;18.092;2024-03-29T02:21:23;6.00;99.90
7427;DHT22;3755;59.316;18.092;2024-03-29T02:24:00;6.00;99.90
7427;DHT22;3755;59.316;18.092;2024-03-29T02:26:27;6.00;99.90
7427;DHT22;3755;59.316;18.092;2024-03-29T02:28:58;6.00;99.90
7427;DHT22;3755;59.316;18.092;2024-03-29T02:31:25;6.00;99.90
7427;DHT22;3755;59.316;18.092;2024-03-29T02:33:52;5.90;99.90
7427;DHT22;3755;59.316;18.092;2024-03-29T02:36:19;5.90;99.90
7427;DHT22;3755;59.316;18.092;2024-03-29T02:38:46;5.90;99.90
7427;DHT22;3755;59.316;18.092;2024-03-29T02:41:15;5.90;99.90
7427;DHT22;3755;59.316;18.092;2024-03-29T02:43:42;5.90;99.90
7427;DHT22;3755;59.316;18.092;2024-03-29T02:46:09;5.80;99.90
7427;DHT22;3755;59.316;18.092;2024-03-29T02:48:36;5.80;99.90
7427;DHT22;3755;59.316;18.092;2024-03-29T02:51:02;5.80;99.90
7427;DHT22;3755;59.316;18.092;2024-03-29T02:53:29;5.70;99.90
7427;DHT22;3755;59.316;18.092;2024-03-29T02:55:55;5.80;99.90
7427;DHT22;3755;59.316;18.092;2024-03-29T02:58:24;5.70;99.90
7427;DHT22;3755;59.316;18.092;2024-03-29T03:00:50;5.70;99.90
7427;DHT22;3755;59.316;18.092;2024-03-29T03:03:17;5.70;99.90
7427;DHT22;3755;59.316;18.092;2024-03-29T03:05:43;5.70;99.90
7427;DHT22;3755;59.316;18.092;2024-03-29T03:08:10;5.70;99.90
7427;DHT22;3755;59.316;18.092;2024-03-29T03:10:55;5.70;99.90
7427;DHT22;3755;59.316;18.092;2024-03-29T03:13:28;5.70;99.90
7427;DHT22;3755;59.316;18.092;2024-03-29T03:15:55;5.60;99.90
7427;DHT22;3755;59.316;18.092;2024-03-29T03:18:22;5.60;99.90
7427;DHT22;3755;59.316;18.092;2024-03-29T03:20:51;5.50;99.90
7427;DHT22;3755;59.316;18.092;2024-03-29T03:23:19;5.50;99.90
7427;DHT22;3755;59.316;18.092;2024-03-29T03:25:46;5.50;99.90
7427;DHT22;3755;59.316;18.092;2024-03-29T03:28:13;5.50;99.90
7427;DHT22;3755;59.316;18.092;2024-03-29T03:30:41;5.50;99.90
7427;DHT22;3755;59.316;18.092;2024-03-29T03:33:08;5.60;99.90
7427;DHT22;3755;59.316;18.092;2024-03-29T03:35:34;5.70;99.90
7427;DHT22;3755;59.316;18.092;2024-03-29T03:38:01;5.70;99.90
7427;DHT22;3755;59.316;18.092;2024-03-29T03:40:27;5.70;99.90
7427;DHT22;3755;59.316;18.092;2024-03-29T03:42:55;5.80;99.90
7427;DHT22;3755;59.316;18.092;2024-03-29T03:45:21;5.80;99.90
7427;DHT22;3755;59.316;18.092;2024-03-29T03:47:49;5.80;99.90
7427;DHT22;3755;59.316;18.092;2024-03-29T03:50:15;5.80;99.90
7427;DHT22;3755;59.316;18.092;2024-03-29T03:52:42;5.90;99.90
7427;DHT22;3755;59.316;18.092;2024-03-29T03:55:08;5.90;99.90
7427;DHT22;3755;59.316;18.092;2024-03-29T03:57:35;5.80;99.90
7427;DHT22;3755;59.316;18.092;2024-03-29T04:00:01;5.90;99.90
7427;DHT22;3755;59.316;18.092;2024-03-29T04:02:29;5.90;99.90
7427;DHT22;3755;59.316;18.092;2024-03-29T04:04:56;5.90;99.90
7427;DHT22;3755;59.316;18.092;2024-03-29T04:07:25;6.00;99.90
7427;DHT22;3755;59.316;18.092;2024-03-29T04:09:51;6.00;99.90
7427;DHT22;3755;59.316;18.092;2024-03-29T04:12:18;5.90;99.90
7427;DHT22;3755;59.316;18.092;2024-03-29T04:14:44;5.90;99.90
7427;DHT22;3755;59.316;18.092;2024-03-29T04:17:12;5.90;99.90
7427;DHT22;3755;59.316;18.092;2024-03-29T04:19:38;5.90;99.90
7427;DHT22;3755;59.316;18.092;2024-03-29T04:22:06;5.90;99.90
7427;DHT22;3755;59.316;18.092;2024-03-29T04:24:32;6.00;99.90
7427;DHT22;3755;59.316;18.092;2024-03-29T04:26:59;5.90;99.90
7427;DHT22;3755;59.316;18.092;2024-03-29T04:29:25;5.90;99.90
7427;DHT22;3755;59.316;18.092;2024-03-29T04:31:52;6.00;99.90
7427;DHT22;3755;59.316;18.092;2024-03-29T04:34:18;6.00;99.90
7427;DHT22;3755;59.316;18.092;2024-03-29T04:36:45;6.00;99.90
7427;DHT22;3755;59.316;18.092;2024-03-29T04:39:13;6.00;99.90
7427;DHT22;3755;59.316;18.092;2024-03-29T04:41:40;6.10;99.90
7427;DHT22;3755;59.316;18.092;2024-03-29T04:44:08;6.00;99.90
7427;DHT22;3755;59.316;18.092;2024-03-29T04:46:35;6.00;99.90
7427;DHT22;3755;59.316;18.092;2024-03-29T04:49:02;6.10;99.90
7427;DHT22;3755;59.316;18.092;2024-03-29T04:51:29;6.10;99.90
7427;DHT22;3755;59.316;18.092;2024-03-29T04:53:56;6.10;99.90
7427;DHT22;3755;59.316;18.092;2024-03-29T04:56:24;6.10;99.90
7427;DHT22;3755;59.316;18.092;2024-03-29T04:58:53;6.10;99.90
7427;DHT22;3755;59.316;18.092;2024-03-29T05:01:20;6.20;99.90
7427;DHT22;3755;59.316;18.092;2024-03-29T05:03:47;6.20;99.90
7427;DHT22;3755;59.316;18.092;2024-03-29T05:06:14;6.10;99.90
7427;DHT22;3755;59.316;18.092;2024-03-29T05:08:41;6.10;99.90
7427;DHT22;3755;59.316;18.092;2024-03-29T05:11:08;6.10;99.90
7427;DHT22;3755;59.316;18.092;2024-03-29T05:13:38;6.20;99.90
7427;DHT22;3755;59.316;18.092;2024-03-29T05:16:06;6.20;99.90
7427;DHT22;3755;59.316;18.092;2024-03-29T05:18:33;6.30;99.90
7427;DHT22;3755;59.316;18.092;2024-03-29T05:21:00;6.30;99.90
7427;DHT22;3755;59.316;18.092;2024-03-29T05:23:27;6.30;99.90
7427;DHT22;3755;59.316;18.092;2024-03-29T05:25:54;6.40;99.90
7427;DHT22;3755;59.316;18.092;2024-03-29T05:28:21;6.40;99.90
7427;DHT22;3755;59.316;18.092;2024-03-29T05:30:49;6.40;99.90
7427;DHT22;3755;59.316;18.092;2024-03-29T05:33:16;6.40;99.90
7427;DHT22;3755;59.316;18.092;2024-03-29T05:35:43;6.30;99.90
7427;DHT22;3755;59.316;18.092;2024-03-29T05:38:11;6.30;99.90
7427;DHT22;3755;59.316;18.092;2024-03-29T05:40:38;6.40;99.90
7427;DHT22;3755;59.316;18.092;2024-03-29T05:43:05;6.40;99.90
7427;DHT22;3755;59.316;18.092;2024-03-29T05:45:32;6.40;99.90
7427;DHT22;3755;59.316;18.092;2024-03-29T05:48:00;6.40;99.90
7427;DHT22;3755;59.316;18.092;2024-03-29T05:50:27;6.40;99.90
7427;DHT22;3755;59.316;18.092;2024-03-29T05:52:54;6.40;99.90
7427;DHT22;3755;59.316;18.092;2024-03-29T05:55:22;6.40;99.90
7427;DHT22;3755;59.316;18.092;2024-03-29T05:57:49;6.50;99.90
7427;DHT22;3755;59.316;18.092;2024-03-29T06:00:16;6.40;99.90
7427;DHT22;3755;59.316;18.092;2024-03-29T06:02:43;6.50;99.90
7427;DHT22;3755;59.316;18.092;2024-03-29T06:05:13;6.50;99.90
7427;DHT22;3755;59.316;18.092;2024-03-29T06:07:40;6.50;99.90
7427;DHT22;3755;59.316;18.092;2024-03-29T06:10:07;6.50;99.90
7427;DHT22;3755;59.316;18.092;2024-03-29T06:12:36;6.50;99.90
7427;DHT22;3755;59.316;18.092;2024-03-29T06:15:05;6.50;99.90
7427;DHT22;3755;59.316;18.092;2024-03-29T06:17:49;6.50;99.90
7427;DHT22;3755;59.316;18.092;2024-03-29T06:20:18;6.60;99.90
7427;DHT22;3755;59.316;18.092;2024-03-29T06:22:45;6.60;99.90
7427;DHT22;3755;59.316;18.092;2024-03-29T06:25:13;6.60;99.90
7427;DHT22;3755;59.316;18.092;2024-03-29T06:27:41;6.60;99.90
7427;DHT22;3755;59.316;18.092;2024-03-29T06:30:13;6.60;99.90
7427;DHT22;3755;59.316;18.092;2024-03-29T06:32:41;6.70;99.90
7427;DHT22;3755;59.316;18.092;2024-03-29T06:35:09;6.80;99.90
7427;DHT22;3755;59.316;18.092;2024-03-29T06:37:37;6.80;99.90
7427;DHT22;3755;59.316;18.092;2024-03-29T06:40:05;6.80;99.90
7427;DHT22;3755;59.316;18.092;2024-03-29T06:42:33;6.80;99.90
7427;DHT22;3755;59.316;18.092;2024-03-29T06:45:00;6.90;99.90
7427;DHT22;3755;59.316;18.092;2024-03-29T06:47:28;6.90;99.90
7427;DHT22;3755;59.316;18.092;2024-03-29T06:49:55;6.90;99.90
7427;DHT22;3755;59.316;18.092;2024-03-29T06:52:22;6.90;99.90
7427;DHT22;3755;59.316;18.092;2024-03-29T06:54:50;6.90;99.90
7427;DHT22;3755;59.316;18.092;2024-03-29T06:57:18;6.90;99.90
7427;DHT22;3755;59.316;18.092;2024-03-29T06:59:48;7.00;99.90
7427;DHT22;3755;59.316;18.092;2024-03-29T07:02:15;7.00;99.90
7427;DHT22;3755;59.316;18.092;2024-03-29T07:04:42;7.00;99.90
7427;DHT22;3755;59.316;18.092;2024-03-29T07:07:09;6.90;99.90
7427;DHT22;3755;59.316;18.092;2024-03-29T07:09:36;6.90;99.90
7427;DHT22;3755;59.316;18.092;2024-03-29T07:12:05;6.90;99.90
7427;DHT22;3755;59.316;18.092;2024-03-29T07:14:33;6.90;99.90
7427;DHT22;3755;59.316;18.092;2024-03-29T07:17:01;7.00;99.90
7427;DHT22;3755;59.316;18.092;2024-03-29T07:19:28;7.10;99.90
7427;DHT22;3755;59.316;18.092;2024-03-29T07:21:55;7.20;99.90
7427;DHT22;3755;59.316;18.092;2024-03-29T07:24:22;7.30;99.90
7427;DHT22;3755;59.316;18.092;2024-03-29T07:26:49;7.30;99.90
7427;DHT22;3755;59.316;18.092;2024-03-29T07:29:18;7.40;99.90
7427;DHT22;3755;59.316;18.092;2024-03-29T07:31:45;7.50;99.90
7427;DHT22;3755;59.316;18.092;2024-03-29T07:34:12;7.50;99.90
7427;DHT22;3755;59.316;18.092;2024-03-29T07:36:39;7.60;99.90
7427;DHT22;3755;59.316;18.092;2024-03-29T07:39:06;7.70;99.90
7427;DHT22;3755;59.316;18.092;2024-03-29T07:41:33;7.50;99.90
7427;DHT22;3755;59.316;18.092;2024-03-29T07:44:01;7.50;99.90
7427;DHT22;3755;59.316;18.092;2024-03-29T07:46:33;7.50;99.90
7427;DHT22;3755;59.316;18.092;2024-03-29T07:49:00;7.50;99.90
7427;DHT22;3755;59.316;18.092;2024-03-29T07:51:28;7.70;99.90
7427;DHT22;3755;59.316;18.092;2024-03-29T07:53:55;7.70;99.90
7427;DHT22;3755;59.316;18.092;2024-03-29T07:56:22;7.70;99.90
7427;DHT22;3755;59.316;18.092;2024-03-29T07:58:51;7.70;99.90
7427;DHT22;3755;59.316;18.092;2024-03-29T08:01:19;7.70;99.90
7427;DHT22;3755;59.316;18.092;2024-03-29T08:03:50;7.80;99.90
7427;DHT22;3755;59.316;18.092;2024-03-29T08:06:19;7.70;99.90
7427;DHT22;3755;59.316;18.092;2024-03-29T08:08:46;7.70;99.90
7427;DHT22;3755;59.316;18.092;2024-03-29T08:11:13;7.70;99.90
7427;DHT22;3755;59.316;18.092;2024-03-29T08:13:41;7.60;99.90
7427;DHT22;3755;59.316;18.092;2024-03-29T08:16:08;7.60;99.90
7427;DHT22;3755;59.316;18.092;2024-03-29T08:18:36;7.70;99.90
7427;DHT22;3755;59.316;18.092;2024-03-29T08:21:05;7.70;99.90
7427;DHT22;3755;59.316;18.092;2024-03-29T08:23:38;7.80;99.90
7427;DHT22;3755;59.316;18.092;2024-03-29T08:26:05;7.70;99.90
7427;DHT22;3755;59.316;18.092;2024-03-29T08:28:32;7.80;99.90
7427;DHT22;3755;59.316;18.092;2024-03-29T08:30:59;7.90;99.90
7427;DHT22;3755;59.316;18.092;2024-03-29T08:33:27;8.00;99.90
7427;DHT22;3755;59.316;18.092;2024-03-29T08:35:54;8.10;99.90
7427;DHT22;3755;59.316;18.092;2024-03-29T08:38:21;8.10;99.90
7427;DHT22;3755;59.316;18.092;2024-03-29T08:40:48;8.00;99.90
7427;DHT22;3755;59.316;18.092;2024-03-29T08:43:16;8.00;99.90
7427;DHT22;3755;59.316;18.092;2024-03-29T08:45:43;8.00;99.90
7427;DHT22;3755;59.316;18.092;2024-03-29T08:48:11;8.10;99.90
7427;DHT22;3755;59.316;18.092;2024-03-29T08:50:38;8.20;99.90
7427;DHT22;3755;59.316;18.092;2024-03-29T08:53:05;8.20;99.90
7427;DHT22;3755;59.316;18.092;2024-03-29T08:55:34;8.20;99.90
7427;DHT22;3755;59.316;18.092;2024-03-29T08:58:02;8.20;99.90
7427;DHT22;3755;59.316;18.092;2024-03-29T09:00:30;8.30;99.90
7427;DHT22;3755;59.316;18.092;2024-03-29T09:02:57;8.40;99.90
7427;DHT22;3755;59.316;18.092;2024-03-29T09:05:25;8.30;99.90
7427;DHT22;3755;59.316;18.092;2024-03-29T09:07:53;8.30;99.90
7427;DHT22;3755;59.316;18.092;2024-03-29T09:10:21;8.20;99.90
7427;DHT22;3755;59.316;18.092;2024-03-29T09:12:49;8.20;99.90
7427;DHT22;3755;59.316;18.092;2024-03-29T09:15:16;8.30;99.90
7427;DHT22;3755;59.316;18.092;2024-03-29T09:17:44;8.50;99.90
7427;DHT22;3755;59.316;18.092;2024-03-29T09:20:12;8.50;99.90
7427;DHT22;3755;59.316;18.092;2024-03-29T09:22:39;8.70;99.90
7427;DHT22;3755;59.316;18.092;2024-03-29T09:25:07;8.90;99.90
7427;DHT22;3755;59.316;18.092;2024-03-29T09:27:39;8.90;99.90
7427;DHT22;3755;59.316;18.092;2024-03-29T09:30:11;9.10;99.90
7427;DHT22;3755;59.316;18.092;2024-03-29T09:32:38;9.20;99.90
7427;DHT22;3755;59.316;18.092;2024-03-29T09:35:06;9.30;99.90
7427;DHT22;3755;59.316;18.092;2024-03-29T09:37:33;9.30;99.90
7427;DHT22;3755;59.316;18.092;2024-03-29T09:40:02;9.40;99.90
7427;DHT22;3755;59.316;18.092;2024-03-29T09:42:32;9.50;99.90
7427;DHT22;3755;59.316;18.092;2024-03-29T09:45:01;9.60;99.90
7427;DHT22;3755;59.316;18.092;2024-03-29T09:47:31;9.40;99.90
7427;DHT22;3755;59.316;18.092;2024-03-29T09:49:59;9.40;99.90
7427;DHT22;3755;59.316;18.092;2024-03-29T09:52:27;9.30;99.90
7427;DHT22;3755;59.316;18.092;2024-03-29T09:54:55;9.30;99.90
7427;DHT22;3755;59.316;18.092;2024-03-29T09:57:22;9.10;99.90
7427;DHT22;3755;59.316;18.092;2024-03-29T09:59:55;9.10;99.90
7427;DHT22;3755;59.316;18.092;2024-03-29T10:02:28;9.10;99.90
7427;DHT22;3755;59.316;18.092;2024-03-29T10:04:57;9.00;99.90
7427;DHT22;3755;59.316;18.092;2024-03-29T10:07:28;9.10;99.90
7427;DHT22;3755;59.316;18.092;2024-03-29T10:09:58;9.20;99.90
7427;DHT22;3755;59.316;18.092;2024-03-29T10:12:25;9.30;99.90
7427;DHT22;3755;59.316;18.092;2024-03-29T10:14:53;9.30;99.90
7427;DHT22;3755;59.316;18.092;2024-03-29T10:17:28;9.30;99.90
7427;DHT22;3755;59.316;18.092;2024-03-29T10:20:00;9.40;99.90
7427;DHT22;3755;59.316;18.092;2024-03-29T10:22:27;9.60;99.90
7427;DHT22;3755;59.316;18.092;2024-03-29T10:24:57;9.60;99.90
7427;DHT22;3755;59.316;18.092;2024-03-29T10:27:25;9.80;99.90
7427;DHT22;3755;59.316;18.092;2024-03-29T10:29:53;9.70;99.90
7427;DHT22;3755;59.316;18.092;2024-03-29T10:32:20;9.70;99.90
7427;DHT22;3755;59.316;18.092;2024-03-29T10:34:48;9.70;99.90
7427;DHT22;3755;59.316;18.092;2024-03-29T10:37:18;9.80;99.90
7427;DHT22;3755;59.316;18.092;2024-03-29T10:39:51;9.80;99.90
7427;DHT22;3755;59.316;18.092;2024-03-29T10:42:19;9.70;99.90
7427;DHT22;3755;59.316;18.092;2024-03-29T10:44:48;9.80;99.90
7427;DHT22;3755;59.316;18.092;2024-03-29T10:47:19;9.70;99.90
7427;DHT22;3755;59.316;18.092;2024-03-29T10:49:49;9.50;99.90
7427;DHT22;3755;59.316;18.092;2024-03-29T10:52:19;9.30;99.90
7427;DHT22;3755;59.316;18.092;2024-03-29T10:54:48;9.40;99.90
7427;DHT22;3755;59.316;18.092;2024-03-29T10:57:19;9.40;99.90
7427;DHT22;3755;59.316;18.092;2024-03-29T10:59:54;9.40;99.90
7427;DHT22;3755;59.316;18.092;2024-03-29T11:02:35;9.60;99.90
7427;DHT22;3755;59.316;18.092;2024-03-29T11:05:06;9.40;99.90
7427;DHT22;3755;59.316;18.092;2024-03-29T11:07:40;9.30;99.90
7427;DHT22;3755;59.316;18.092;2024-03-29T11:10:12;9.30;99.90
7427;DHT22;3755;59.316;18.092;2024-03-29T11:12:49;9.30;99.90
7427;DHT22;3755;59.316;18.092;2024-03-29T11:15:26;9.40;99.90
7427;DHT22;3755;59.316;18.092;2024-03-29T11:17:54;9.40;99.90
7427;DHT22;3755;59.316;18.092;2024-03-29T11:20:23;9.60;99.90
7427;DHT22;3755;59.316;18.092;2024-03-29T11:23:03;9.80;99.90
7427;DHT22;3755;59.316;18.092;2024-03-29T11:25:39;9.90;99.90
7427;DHT22;3755;59.316;18.092;2024-03-29T11:28:06;9.90;99.90
7427;DHT22;3755;59.316;18.092;2024-03-29T11:30:40;10.10;99.90
7427;DHT22;3755;59.316;18.092;2024-03-29T11:33:08;10.00;99.90
7427;DHT22;3755;59.316;18.092;2024-03-29T11:35:40;10.10;99.90
7427;DHT22;3755;59.316;18.092;2024-03-29T11:38:08;10.00;99.90
7427;DHT22;3755;59.316;18.092;2024-03-29T11:40:35;10.20;99.90
7427;DHT22;3755;59.316;18.092;2024-03-29T11:43:02;10.70;99.90
7427;DHT22;3755;59.316;18.092;2024-03-29T11:45:30;10.90;99.90
7427;DHT22;3755;59.316;18.092;2024-03-29T11:48:03;11.20;99.90
7427;DHT22;3755;59.316;18.092;2024-03-29T11:50:34;11.10;99.90
7427;DHT22;3755;59.316;18.092;2024-03-29T11:53:05;11.00;99.90
7427;DHT22;3755;59.316;18.092;2024-03-29T11:55:33;10.90;99.90
7427;DHT22;3755;59.316;18.092;2024-03-29T11:58:01;10.70;99.90
7427;DHT22;3755;59.316;18.092;2024-03-29T12:00:28;10.70;99.90
7427;DHT22;3755;59.316;18.092;2024-03-29T12:02:56;10.60;99.90
7427;DHT22;3755;59.316;18.092;2024-03-29T12:05:24;10.40;99.90
7427;DHT22;3755;59.316;18.092;2024-03-29T12:07:51;10.70;99.90
7427;DHT22;3755;59.316;18.092;2024-03-29T12:10:19;11.00;99.90
7427;DHT22;3755;59.316;18.092;2024-03-29T12:12:47;11.10;99.90
7427;DHT22;3755;59.316;18.092;2024-03-29T12:15:16;11.20;99.90
7427;DHT22;3755;59.316;18.092;2024-03-29T12:17:53;11.20;99.90
7427;DHT22;3755;59.316;18.092;2024-03-29T12:20:20;11.10;99.90
7427;DHT22;3755;59.316;18.092;2024-03-29T12:22:47;11.00;99.90
7427;DHT22;3755;59.316;18.092;2024-03-29T12:25:14;10.80;99.90
7427;DHT22;3755;59.316;18.092;2024-03-29T12:27:42;10.80;99.90
7427;DHT22;3755;59.316;18.092;2024-03-29T12:30:12;11.10;99.90
7427;DHT22;3755;59.316;18.092;2024-03-29T12:32:40;11.30;99.90
7427;DHT22;3755;59.316;18.092;2024-03-29T12:35:10;11.50;99.90
7427;DHT22;3755;59.316;18.092;2024-03-29T12:37:38;11.50;99.90
7427;DHT22;3755;59.316;18.092;2024-03-29T12:40:06;11.30;99.90
7427;DHT22;3755;59.316;18.092;2024-03-29T12:42:38;11.20;99.90
7427;DHT22;3755;59.316;18.092;2024-03-29T12:45:07;11.10;99.90
7427;DHT22;3755;59.316;18.092;2024-03-29T12:47:36;11.20;99.90
7427;DHT22;3755;59.316;18.092;2024-03-29T12:50:03;11.30;99.90
7427;DHT22;3755;59.316;18.092;2024-03-29T12:52:36;11.40;99.90
7427;DHT22;3755;59.316;18.092;2024-03-29T12:55:04;11.70;99.90
7427;DHT22;3755;59.316;18.092;2024-03-29T12:57:33;11.60;99.90
7427;DHT22;3755;59.316;18.092;2024-03-29T13:00:00;11.60;99.90
7427;DHT22;3755;59.316;18.092;2024-03-29T13:02:28;11.60;99.90
7427;DHT22;3755;59.316;18.092;2024-03-29T13:04:56;11.70;99.90
7427;DHT22;3755;59.316;18.092;2024-03-29T13:07:23;11.50;99.90
7427;DHT22;3755;59.316;18.092;2024-03-29T13:09:50;11.40;99.90
7427;DHT22;3755;59.316;18.092;2024-03-29T13:12:18;11.60;99.90
7427;DHT22;3755;59.316;18.092;2024-03-29T13:14:45;11.80;99.90
7427;DHT22;3755;59.316;18.092;2024-03-29T13:17:12;12.00;99.90
7427;DHT22;3755;59.316;18.092;2024-03-29T13:19:39;12.20;99.90
7427;DHT22;3755;59.316;18.092;2024-03-29T13:22:08;12.10;99.90
7427;DHT22;3755;59.316;18.092;2024-03-29T13:24:35;12.00;99.90
7427;DHT22;3755;59.316;18.092;2024-03-29T13:27:02;11.90;99.90
7427;DHT22;3755;59.316;18.092;2024-03-29T13:29:30;11.70;99.90
7427;DHT22;3755;59.316;18.092;2024-03-29T13:31:57;11.60;99.90
7427;DHT22;3755;59.316;18.092;2024-03-29T13:34:24;11.60;99.90
7427;DHT22;3755;59.316;18.092;2024-03-29T13:36:51;11.50;99.90
7427;DHT22;3755;59.316;18.092;2024-03-29T13:39:20;11.50;99.90
7427;DHT22;3755;59.316;18.092;2024-03-29T13:41:49;11.50;99.90
7427;DHT22;3755;59.316;18.092;2024-03-29T13:44:16;11.50;99.90
7427;DHT22;3755;59.316;18.092;2024-03-29T13:46:43;11.50;99.90
7427;DHT22;3755;59.316;18.092;2024-03-29T13:49:10;11.50;99.90
7427;DHT22;3755;59.316;18.092;2024-03-29T13:51:38;11.70;99.90
7427;DHT22;3755;59.316;18.092;2024-03-29T13:54:06;11.80;99.90
7427;DHT22;3755;59.316;18.092;2024-03-29T13:56:34;11.90;99.90
7427;DHT22;3755;59.316;18.092;2024-03-29T13:59:01;11.90;99.90
7427;DHT22;3755;59.316;18.092;2024-03-29T14:01:28;11.80;99.90
7427;DHT22;3755;59.316;18.092;2024-03-29T14:03:55;11.70;99.90
7427;DHT22;3755;59.316;18.092;2024-03-29T14:06:22;11.90;99.90
7427;DHT22;3755;59.316;18.092;2024-03-29T14:08:49;11.90;99.90
7427;DHT22;3755;59.316;18.092;2024-03-29T14:11:17;11.80;99.90
7427;DHT22;3755;59.316;18.092;2024-03-29T14:13:46;11.80;99.90
7427;DHT22;3755;59.316;18.092;2024-03-29T14:16:15;11.80;99.90
7427;DHT22;3755;59.316;18.092;2024-03-29T14:18:42;11.70;99.90
7427;DHT22;3755;59.316;18.092;2024-03-29T14:21:09;11.60;99.90
7427;DHT22;3755;59.316;18.092;2024-03-29T14:23:36;11.60;99.90
7427;DHT22;3755;59.316;18.092;2024-03-29T14:26:03;11.70;99.90
7427;DHT22;3755;59.316;18.092;2024-03-29T14:28:30;11.70;99.90
7427;DHT22;3755;59.316;18.092;2024-03-29T14:30:59;11.70;99.90
7427;DHT22;3755;59.316;18.092;2024-03-29T14:33:26;11.80;99.90
7427;DHT22;3755;59.316;18.092;2024-03-29T14:35:53;11.80;99.90
7427;DHT22;3755;59.316;18.092;2024-03-29T14:38:20;11.90;99.90
7427;DHT22;3755;59.316;18.092;2024-03-29T14:40:47;11.90;99.90
7427;DHT22;3755;59.316;18.092;2024-03-29T14:43:14;11.80;99.90
7427;DHT22;3755;59.316;18.092;2024-03-29T14:45:42;11.60;99.90
7427;DHT22;3755;59.316;18.092;2024-03-29T14:48:10;11.60;99.90
7427;DHT22;3755;59.316;18.092;2024-03-29T14:50:38;11.60;99.90
7427;DHT22;3755;59.316;18.092;2024-03-29T14:53:05;11.80;99.90
7427;DHT22;3755;59.316;18.092;2024-03-29T14:55:32;11.80;99.90
7427;DHT22;3755;59.316;18.092;2024-03-29T14:58:02;11.70;99.90
7427;DHT22;3755;59.316;18.092;2024-03-29T15:00:29;11.70;99.90
7427;DHT22;3755;59.316;18.092;2024-03-29T15:02:56;11.70;99.90
7427;DHT22;3755;59.316;18.092;2024-03-29T15:05:24;11.80;99.90
7427;DHT22;3755;59.316;18.092;2024-03-29T15:07:52;11.70;99.90
7427;DHT22;3755;59.316;18.092;2024-03-29T15:10:19;11.80;99.90
7427;DHT22;3755;59.316;18.092;2024-03-29T15:12:47;11.80;99.90
7427;DHT22;3755;59.316;18.092;2024-03-29T15:15:14;11.90;99.90
7427;DHT22;3755;59.316;18.092;2024-03-29T15:17:41;11.90;99.90
7427;DHT22;3755;59.316;18.092;2024-03-29T15:20:10;12.00;99.90
7427;DHT22;3755;59.316;18.092;2024-03-29T15:22:41;12.00;99.90
7427;DHT22;3755;59.316;18.092;2024-03-29T15:25:09;12.20;99.90
7427;DHT22;3755;59.316;18.092;2024-03-29T15:27:37;12.30;99.90
7427;DHT22;3755;59.316;18.092;2024-03-29T15:30:20;12.50;99.90
7427;DHT22;3755;59.316;18.092;2024-03-29T15:32:47;12.50;99.90
7427;DHT22;3755;59.316;18.092;2024-03-29T15:35:14;12.20;99.90
7427;DHT22;3755;59.316;18.092;2024-03-29T15:37:43;12.30;99.90
7427;DHT22;3755;59.316;18.092;2024-03-29T15:40:11;12.10;99.90
7427;DHT22;3755;59.316;18.092;2024-03-29T15:42:38;12.00;99.90
7427;DHT22;3755;59.316;18.092;2024-03-29T15:45:08;11.90;99.90
7427;DHT22;3755;59.316;18.092;2024-03-29T15:47:36;11.90;99.90
7427;DHT22;3755;59.316;18.092;2024-03-29T15:50:03;11.90;99.90
7427;DHT22;3755;59.316;18.092;2024-03-29T15:52:30;11.90;99.90
7427;DHT22;3755;59.316;18.092;2024-03-29T15:54:58;11.80;99.90
7427;DHT22;3755;59.316;18.092;2024-03-29T15:57:25;11.80;99.90
7427;DHT22;3755;59.316;18.092;2024-03-29T15:59:52;11.80;99.90
7427;DHT22;3755;59.316;18.092;2024-03-29T16:02:19;11.70;99.90